sensor_id;sensor_type;location;lat;lon;timestamp;pressure;altitude;pressure_sealevel;temperature;humidity
36254;BME280;22291;52.250;21.228;2023-01-28T00:01:21;101016.44;;;-0.16;94.11
36254;BME280;22291;52.250;21.228;2023-01-28T00:03:50;101013.47;;;-0.17;94.08
36254;BME280;22291;52.250;21.228;2023-01-28T00:06:18;101012.14;;;-0.17;94.24
36254;BME280;22291;52.250;21.228;2023-01-28T00:08:45;101010.01;;;-0.18;94.23
36254;BME280;22291;52.250;21.228;2023-01-28T00:11:12;101016.56;;;-0.21;94.24
36254;BME280;22291;52.250;21.228;2023-01-28T00:13:39;101012.88;;;-0.20;94.31
36254;BME280;22291;52.250;21.228;2023-01-28T00:16:08;101019.75;;;-0.21;94.38
36254;BME280;22291;52.250;21.228;2023-01-28T00:18:35;101018.94;;;-0.22;94.38
36254;BME280;22291;52.250;21.228;2023-01-28T00:21:09;101018.94;;;-0.22;94.39
36254;BME280;22291;52.250;21.228;2023-01-28T00:23:38;101021.88;;;-0.21;94.34
36254;BME280;22291;52.250;21.228;2023-01-28T00:26:09;101019.75;;;-0.21;94.42
36254;BME280;22291;52.250;21.228;2023-01-28T00:28:36;101022.19;;;-0.20;94.45
36254;BME280;22291;52.250;21.228;2023-01-28T00:31:14;101013.41;;;-0.20;94.50
36254;BME280;22291;52.250;21.228;2023-01-28T00:33:44;101014.21;;;-0.20;94.59
36254;BME280;22291;52.250;21.228;2023-01-28T00:36:13;101020.05;;;-0.20;94.59
36254;BME280;22291;52.250;21.228;2023-01-28T00:38:41;101019.53;;;-0.20;94.56
36254;BME280;22291;52.250;21.228;2023-01-28T00:41:16;101017.98;;;-0.18;94.65
36254;BME280;22291;52.250;21.228;2023-01-28T00:43:47;101018.30;;;-0.17;94.67
36254;BME280;22291;52.250;21.228;2023-01-28T00:46:15;101014.80;;;-0.17;94.68
36254;BME280;22291;52.250;21.228;2023-01-28T00:48:43;101015.33;;;-0.18;94.75
36254;BME280;22291;52.250;21.228;2023-01-28T00:51:12;101015.63;;;-0.17;94.77
36254;BME280;22291;52.250;21.228;2023-01-28T00:53:40;101010.31;;;-0.17;94.86
36254;BME280;22291;52.250;21.228;2023-01-28T00:56:09;101013.47;;;-0.17;94.90
36254;BME280;22291;52.250;21.228;2023-01-28T00:58:38;101007.34;;;-0.18;94.90
36254;BME280;22291;52.250;21.228;2023-01-28T01:01:13;101012.66;;;-0.18;94.95
36254;BME280;22291;52.250;21.228;2023-01-28T01:03:41;101005.27;;;-0.16;94.94
36254;BME280;22291;52.250;21.228;2023-01-28T01:06:10;101005.64;;;-0.12;94.95
36254;BME280;22291;52.250;21.228;2023-01-28T01:08:38;101000.27;;;-0.15;95.01
36254;BME280;22291;52.250;21.228;2023-01-28T01:11:12;101002.98;;;-0.12;95.01
36254;BME280;22291;52.250;21.228;2023-01-28T01:13:38;101001.75;;;-0.10;95.05
36254;BME280;22291;52.250;21.228;2023-01-28T01:16:11;101008.67;;;-0.09;95.03
36254;BME280;22291;52.250;21.228;2023-01-28T01:18:39;101004.99;;;-0.08;95.01
36254;BME280;22291;52.250;21.228;2023-01-28T01:21:13;101008.83;;;-0.04;95.00
36254;BME280;22291;52.250;21.228;2023-01-28T01:23:42;101010.47;;;-0.03;94.97
36254;BME280;22291;52.250;21.228;2023-01-28T01:26:10;101020.08;;;-0.02;94.98
36254;BME280;22291;52.250;21.228;2023-01-28T01:28:38;101009.13;;;-0.03;95.06
36254;BME280;22291;52.250;21.228;2023-01-28T01:31:10;101011.27;;;-0.02;95.06
36254;BME280;22291;52.250;21.228;2023-01-28T01:33:45;101004.62;;;-0.02;95.09
36254;BME280;22291;52.250;21.228;2023-01-28T01:36:15;101007.37;;;0.01;95.10
36254;BME280;22291;52.250;21.228;2023-01-28T01:38:43;101003.37;;;0.01;95.10
36254;BME280;22291;52.250;21.228;2023-01-28T01:41:28;101000.41;;;-0.01;95.02
36254;BME280;22291;52.250;21.228;2023-01-28T01:44:04;101009.50;;;0.01;95.03
36254;BME280;22291;52.250;21.228;2023-01-28T01:46:44;101005.73;;;-0.01;95.01
36254;BME280;22291;52.250;21.228;2023-01-28T01:49:22;101012.38;;;-0.01;95.08
36254;BME280;22291;52.250;21.228;2023-01-28T01:52:00;101012.47;;;0.02;95.16
36254;BME280;22291;52.250;21.228;2023-01-28T01:54:29;101010.03;;;0.01;95.13
36254;BME280;22291;52.250;21.228;2023-01-28T01:56:58;101009.28;;;0.03;95.16
36254;BME280;22291;52.250;21.228;2023-01-28T01:59:29;101002.85;;;0.01;95.09
36254;BME280;22291;52.250;21.228;2023-01-28T02:02:00;101003.16;;;0.02;95.17
36254;BME280;22291;52.250;21.228;2023-01-28T02:04:32;101007.43;;;0.03;95.22
36254;BME280;22291;52.250;21.228;2023-01-28T02:07:02;101008.54;;;0.05;95.31
36254;BME280;22291;52.250;21.228;2023-01-28T02:09:34;101009.87;;;0.05;95.31
36254;BME280;22291;52.250;21.228;2023-01-28T02:14:53;101005.60;;;0.04;95.30
36254;BME280;22291;52.250;21.228;2023-01-28T02:17:29;101005.08;;;0.04;95.35
36254;BME280;22291;52.250;21.228;2023-01-28T02:20:08;101010.98;;;0.06;95.31
36254;BME280;22291;52.250;21.228;2023-01-28T02:25:40;101008.84;;;0.06;95.21
36254;BME280;22291;52.250;21.228;2023-01-28T02:28:33;101006.99;;;0.06;95.26
36254;BME280;22291;52.250;21.228;2023-01-28T02:31:33;101009.74;;;0.09;95.23
36254;BME280;22291;52.250;21.228;2023-01-28T02:34:16;101014.01;;;0.10;95.25
36254;BME280;22291;52.250;21.228;2023-01-28T02:39:32;101016.77;;;0.12;95.26
36254;BME280;22291;52.250;21.228;2023-01-28T02:42:13;101011.44;;;0.12;95.26
36254;BME280;22291;52.250;21.228;2023-01-28T02:44:39;101008.78;;;0.12;95.27
36254;BME280;22291;52.250;21.228;2023-01-28T02:47:11;101011.66;;;0.11;95.35
36254;BME280;22291;52.250;21.228;2023-01-28T02:50:00;101008.47;;;0.11;95.38
36254;BME280;22291;52.250;21.228;2023-01-28T03:03:54;101013.73;;;0.09;95.58
36254;BME280;22291;52.250;21.228;2023-01-28T03:06:39;101017.50;;;0.10;95.61
36254;BME280;22291;52.250;21.228;2023-01-28T03:09:10;101013.73;;;0.09;95.67
36254;BME280;22291;52.250;21.228;2023-01-28T03:12:10;101019.86;;;0.09;95.66
36254;BME280;22291;52.250;21.228;2023-01-28T03:15:40;101016.89;;;0.08;95.61
36254;BME280;22291;52.250;21.228;2023-01-28T03:18:06;101016.83;;;0.06;95.55
36254;BME280;22291;52.250;21.228;2023-01-28T03:24:15;101019.48;;;0.06;95.70
36254;BME280;22291;52.250;21.228;2023-01-28T03:30:08;101024.28;;;0.06;95.86
36254;BME280;22291;52.250;21.228;2023-01-28T03:32:57;101020.30;;;0.06;95.85
36254;BME280;22291;52.250;21.228;2023-01-28T03:35:44;101017.84;;;0.05;95.81
36254;BME280;22291;52.250;21.228;2023-01-28T03:38:30;101022.37;;;0.04;95.88
36254;BME280;22291;52.250;21.228;2023-01-28T03:41:02;101022.37;;;0.04;95.88
36254;BME280;22291;52.250;21.228;2023-01-28T03:43:30;101015.72;;;0.04;95.88
36254;BME280;22291;52.250;21.228;2023-01-28T03:45:58;101017.57;;;0.04;95.87
36254;BME280;22291;52.250;21.228;2023-01-28T03:48:28;101011.64;;;0.02;95.84
36254;BME280;22291;52.250;21.228;2023-01-28T03:50:57;101014.61;;;0.03;95.86
36254;BME280;22291;52.250;21.228;2023-01-28T03:53:26;101030.65;;;0.14;95.76
36254;BME280;22291;52.250;21.228;2023-01-28T03:55:55;101030.65;;;0.14;95.76
36254;BME280;22291;52.250;21.228;2023-01-28T03:58:26;101016.83;;;0.06;95.93
36254;BME280;22291;52.250;21.228;2023-01-28T04:00:54;101007.52;;;0.06;95.99
36254;BME280;22291;52.250;21.228;2023-01-28T04:03:22;101010.17;;;0.06;96.02
36254;BME280;22291;52.250;21.228;2023-01-28T04:06:01;101007.80;;;0.07;95.98
36254;BME280;22291;52.250;21.228;2023-01-28T04:08:30;101015.28;;;0.07;96.12
36254;BME280;22291;52.250;21.228;2023-01-28T04:10:56;101013.64;;;0.06;95.93
36254;BME280;22291;52.250;21.228;2023-01-28T09:49:33;101143.19;;;0.59;98.45
36254;BME280;22291;52.250;21.228;2023-01-28T09:52:04;101132.23;;;0.48;98.14
36254;BME280;22291;52.250;21.228;2023-01-28T09:54:45;101136.23;;;0.48;98.25
36254;BME280;22291;52.250;21.228;2023-01-28T09:57:39;101137.56;;;0.48;98.25
36254;BME280;22291;52.250;21.228;2023-01-28T10:00:19;101131.71;;;0.49;98.21
36254;BME280;22291;52.250;21.228;2023-01-28T10:08:23;101125.37;;;0.50;98.16
36254;BME280;22291;52.250;21.228;2023-01-28T10:11:01;101126.70;;;0.50;98.16
36254;BME280;22291;52.250;21.228;2023-01-28T10:13:47;101120.04;;;0.50;98.17
36254;BME280;22291;52.250;21.228;2023-01-28T10:16:23;101122.98;;;0.51;98.33
36254;BME280;22291;52.250;21.228;2023-01-28T10:19:07;101122.27;;;0.53;98.36
36254;BME280;22291;52.250;21.228;2023-01-28T10:24:35;101124.98;;;0.55;98.32
36254;BME280;22291;52.250;21.228;2023-01-28T10:27:20;101117.53;;;0.55;98.27
36254;BME280;22291;52.250;21.228;2023-01-28T10:29:51;101116.47;;;0.56;98.32
36254;BME280;22291;52.250;21.228;2023-01-28T10:32:31;101112.48;;;0.56;98.17
36254;BME280;22291;52.250;21.228;2023-01-28T10:35:02;101113.31;;;0.57;98.20
36254;BME280;22291;52.250;21.228;2023-01-28T10:37:35;101120.47;;;0.56;98.08
36254;BME280;22291;52.250;21.228;2023-01-28T10:40:06;101116.63;;;0.52;98.04
36254;BME280;22291;52.250;21.228;2023-01-28T10:42:38;101110.56;;;0.54;97.98
36254;BME280;22291;52.250;21.228;2023-01-28T10:45:21;101109.98;;;0.52;97.94
36254;BME280;22291;52.250;21.228;2023-01-28T10:50:36;101107.63;;;0.53;98.12
36254;BME280;22291;52.250;21.228;2023-01-28T10:53:04;101100.97;;;0.53;98.09
36254;BME280;22291;52.250;21.228;2023-01-28T10:58:20;101112.48;;;0.56;98.34
36254;BME280;22291;52.250;21.228;2023-01-28T11:01:04;101105.17;;;0.61;98.65
36254;BME280;22291;52.250;21.228;2023-01-28T11:16:27;101093.56;;;0.73;98.18
36254;BME280;22291;52.250;21.228;2023-01-28T11:18:58;101090.37;;;0.74;98.01
36254;BME280;22291;52.250;21.228;2023-01-28T11:21:28;101094.89;;;0.73;97.87
36254;BME280;22291;52.250;21.228;2023-01-28T11:24:01;101089.26;;;0.72;97.89
36254;BME280;22291;52.250;21.228;2023-01-28T11:26:35;101082.30;;;0.71;97.76
36254;BME280;22291;52.250;21.228;2023-01-28T11:29:04;101088.15;;;0.71;97.90
36254;BME280;22291;52.250;21.228;2023-01-28T11:31:36;101084.95;;;0.71;97.90
36254;BME280;22291;52.250;21.228;2023-01-28T11:34:05;101088.37;;;0.69;97.73
36254;BME280;22291;52.250;21.228;2023-01-28T11:36:33;101082.98;;;0.67;97.76
36254;BME280;22291;52.250;21.228;2023-01-28T11:39:02;101088.09;;;0.68;97.82
36254;BME280;22291;52.250;21.228;2023-01-28T11:41:33;101086.77;;;0.68;97.88
36254;BME280;22291;52.250;21.228;2023-01-28T11:47:20;101077.13;;;0.67;97.91
36254;BME280;22291;52.250;21.228;2023-01-28T11:58:21;101081.56;;;0.64;97.67
36254;BME280;22291;52.250;21.228;2023-01-28T12:03:40;101078.63;;;0.63;97.71
36254;BME280;22291;52.250;21.228;2023-01-28T12:18:17;101072.41;;;0.60;97.73
36254;BME280;22291;52.250;21.228;2023-01-28T12:21:04;101069.17;;;0.58;97.59
36254;BME280;22291;52.250;21.228;2023-01-28T12:29:29;101074.55;;;0.61;97.99
36254;BME280;22291;52.250;21.228;2023-01-28T12:32:25;101073.22;;;0.61;97.75
36254;BME280;22291;52.250;21.228;2023-01-28T12:35:21;101072.19;;;0.62;97.81
36254;BME280;22291;52.250;21.228;2023-01-28T12:38:07;101073.52;;;0.62;97.89
36254;BME280;22291;52.250;21.228;2023-01-28T12:46:04;101069.53;;;0.62;97.80
36254;BME280;22291;52.250;21.228;2023-01-28T12:48:42;101068.95;;;0.60;97.74
36254;BME280;22291;52.250;21.228;2023-01-28T12:53:57;101067.89;;;0.61;97.80
36254;BME280;22291;52.250;21.228;2023-01-28T12:56:51;101072.11;;;0.59;97.70
36254;BME280;22291;52.250;21.228;2023-01-28T13:02:16;101073.16;;;0.58;97.76
36254;BME280;22291;52.250;21.228;2023-01-28T13:12:57;101065.83;;;0.53;97.67
36254;BME280;22291;52.250;21.228;2023-01-28T13:15:25;101074.34;;;0.53;97.55
36254;BME280;22291;52.250;21.228;2023-01-28T13:17:55;101071.07;;;0.51;97.53
36254;BME280;22291;52.250;21.228;2023-01-28T13:20:46;101072.40;;;0.51;97.46
36254;BME280;22291;52.250;21.228;2023-01-28T13:23:26;101072.34;;;0.48;97.43
36254;BME280;22291;52.250;21.228;2023-01-28T13:26:07;101070.70;;;0.47;97.49
36254;BME280;22291;52.250;21.228;2023-01-28T13:28:35;101075.75;;;0.46;97.38
36254;BME280;22291;52.250;21.228;2023-01-28T13:31:08;101075.45;;;0.45;97.39
36254;BME280;22291;52.250;21.228;2023-01-28T13:33:39;101075.88;;;0.42;97.38
36254;BME280;22291;52.250;21.228;2023-01-28T13:36:47;101074.77;;;0.41;97.50
36254;BME280;22291;52.250;21.228;2023-01-28T13:44:37;101077.96;;;0.40;97.65
36254;BME280;22291;52.250;21.228;2023-01-28T13:47:19;101077.16;;;0.40;97.62
36254;BME280;22291;52.250;21.228;2023-01-28T13:49:49;101081.15;;;0.40;97.65
36254;BME280;22291;52.250;21.228;2023-01-28T13:52:36;101077.16;;;0.40;97.65
36254;BME280;22291;52.250;21.228;2023-01-28T13:55:04;101080.63;;;0.40;97.68
36254;BME280;22291;52.250;21.228;2023-01-28T14:07:06;101080.25;;;0.36;97.53
36254;BME280;22291;52.250;21.228;2023-01-28T14:12:52;101071.96;;;0.35;97.63
36254;BME280;22291;52.250;21.228;2023-01-28T14:15:47;101069.52;;;0.34;97.58
36254;BME280;22291;52.250;21.228;2023-01-28T14:18:31;101074.03;;;0.33;97.63
36254;BME280;22291;52.250;21.228;2023-01-28T14:21:02;101072.43;;;0.32;97.66
36254;BME280;22291;52.250;21.228;2023-01-28T14:23:31;101073.14;;;0.30;97.69
36254;BME280;22291;52.250;21.228;2023-01-28T14:29:06;101076.91;;;0.32;97.59
36254;BME280;22291;52.250;21.228;2023-01-28T14:31:50;101075.31;;;0.31;97.56
36254;BME280;22291;52.250;21.228;2023-01-28T14:34:23;101072.56;;;0.28;97.57
36254;BME280;22291;52.250;21.228;2023-01-28T14:36:56;101073.45;;;0.31;97.92
36254;BME280;22291;52.250;21.228;2023-01-28T14:39:28;101083.35;;;0.33;97.97
36254;BME280;22291;52.250;21.228;2023-01-28T14:41:58;101077.28;;;0.35;98.04
36254;BME280;22291;52.250;21.228;2023-01-28T14:44:35;101078.92;;;0.36;97.92
36254;BME280;22291;52.250;21.228;2023-01-28T14:50:18;101084.25;;;0.36;97.46
36254;BME280;22291;52.250;21.228;2023-01-28T14:56:03;101085.48;;;0.34;97.28
36254;BME280;22291;52.250;21.228;2023-01-28T14:58:42;101083.88;;;0.33;97.20
36254;BME280;22291;52.250;21.228;2023-01-28T15:01:22;101083.30;;;0.31;97.22
36254;BME280;22291;52.250;21.228;2023-01-28T15:03:50;101084.31;;;0.30;97.21
36254;BME280;22291;52.250;21.228;2023-01-28T15:06:20;101083.52;;;0.29;97.23
36254;BME280;22291;52.250;21.228;2023-01-28T15:08:50;101077.30;;;0.26;97.17
36254;BME280;22291;52.250;21.228;2023-01-28T15:11:22;101082.30;;;0.25;97.17
36254;BME280;22291;52.250;21.228;2023-01-28T15:13:53;101090.51;;;0.24;97.21
36254;BME280;22291;52.250;21.228;2023-01-28T15:16:26;101093.38;;;0.22;97.19
36254;BME280;22291;52.250;21.228;2023-01-28T15:18:56;101093.02;;;0.18;97.24
36254;BME280;22291;52.250;21.228;2023-01-28T15:21:27;101086.89;;;0.18;97.24
36254;BME280;22291;52.250;21.228;2023-01-28T15:23:57;101090.36;;;0.18;97.26
36254;BME280;22291;52.250;21.228;2023-01-28T15:26:30;101090.82;;;0.15;97.24
36254;BME280;22291;52.250;21.228;2023-01-28T15:29:00;101092.15;;;0.15;97.28
36254;BME280;22291;52.250;21.228;2023-01-28T15:31:33;101096.36;;;0.14;97.34
36254;BME280;22291;52.250;21.228;2023-01-28T15:34:15;101095.73;;;0.12;97.43
36254;BME280;22291;52.250;21.228;2023-01-28T15:36:44;101101.58;;;0.11;97.42
36254;BME280;22291;52.250;21.228;2023-01-28T15:39:17;101107.95;;;0.10;97.46
36254;BME280;22291;52.250;21.228;2023-01-28T15:41:51;101108.98;;;0.09;97.45
36254;BME280;22291;52.250;21.228;2023-01-28T15:44:31;101105.20;;;0.08;97.38
36254;BME280;22291;52.250;21.228;2023-01-28T15:46:57;101107.28;;;0.06;97.31
36254;BME280;22291;52.250;21.228;2023-01-28T15:49:30;101107.48;;;0.04;97.16
36254;BME280;22291;52.250;21.228;2023-01-28T15:51:57;101105.79;;;0.01;97.16
36254;BME280;22291;52.250;21.228;2023-01-28T15:54:25;101114.58;;;0.01;97.18
36254;BME280;22291;52.250;21.228;2023-01-28T15:56:55;101109.19;;;-0.02;97.14
36254;BME280;22291;52.250;21.228;2023-01-28T15:59:27;101105.41;;;-0.03;97.18
36254;BME280;22291;52.250;21.228;2023-01-28T16:02:17;101106.44;;;-0.04;97.13
36254;BME280;22291;52.250;21.228;2023-01-28T16:05:01;101100.80;;;-0.05;97.13
36254;BME280;22291;52.250;21.228;2023-01-28T16:07:31;101106.06;;;-0.08;97.05
36254;BME280;22291;52.250;21.228;2023-01-28T16:10:03;101110.05;;;-0.08;97.14
36254;BME280;22291;52.250;21.228;2023-01-28T16:12:30;101107.60;;;-0.09;97.18
36254;BME280;22291;52.250;21.228;2023-01-28T16:15:00;101115.06;;;-0.09;97.23
36254;BME280;22291;52.250;21.228;2023-01-28T16:17:33;101118.24;;;-0.09;97.21
36254;BME280;22291;52.250;21.228;2023-01-28T16:20:30;101118.67;;;-0.12;97.04
36254;BME280;22291;52.250;21.228;2023-01-28T16:22:45;101119.51;;;-0.12;96.98
36254;BME280;22291;52.250;21.228;2023-01-28T16:25:24;101122.66;;;-0.12;96.70
36254;BME280;22291;52.250;21.228;2023-01-28T16:27:57;101125.04;;;-0.13;96.53
36254;BME280;22291;52.250;21.228;2023-01-28T16:30:25;101119.10;;;-0.15;96.18
36254;BME280;22291;52.250;21.228;2023-01-28T16:32:53;101116.90;;;-0.18;95.98
36254;BME280;22291;52.250;21.228;2023-01-28T16:35:28;101117.39;;;-0.19;95.78
36254;BME280;22291;52.250;21.228;2023-01-28T16:37:54;101112.81;;;-0.21;95.70
36254;BME280;22291;52.250;21.228;2023-01-28T16:40:23;101122.13;;;-0.21;95.66
36254;BME280;22291;52.250;21.228;2023-01-28T16:42:52;101122.34;;;-0.23;95.57
36254;BME280;22291;52.250;21.228;2023-01-28T16:45:24;101120.20;;;-0.23;95.46
36254;BME280;22291;52.250;21.228;2023-01-28T16:47:52;101121.43;;;-0.26;95.46
36254;BME280;22291;52.250;21.228;2023-01-28T16:50:20;101118.49;;;-0.27;95.26
36254;BME280;22291;52.250;21.228;2023-01-28T16:52:50;101125.36;;;-0.28;95.24
36254;BME280;22291;52.250;21.228;2023-01-28T16:55:21;101126.09;;;-0.30;95.20
36254;BME280;22291;52.250;21.228;2023-01-28T16:57:50;101124.77;;;-0.30;95.30
36254;BME280;22291;52.250;21.228;2023-01-28T17:00:22;101125.47;;;-0.32;95.37
36254;BME280;22291;52.250;21.228;2023-01-28T17:02:52;101128.44;;;-0.31;95.36
36254;BME280;22291;52.250;21.228;2023-01-28T17:05:21;101129.45;;;-0.32;95.40
36254;BME280;22291;52.250;21.228;2023-01-28T17:07:49;101129.39;;;-0.35;95.31
36254;BME280;22291;52.250;21.228;2023-01-28T17:10:19;101122.43;;;-0.36;95.37
36254;BME280;22291;52.250;21.228;2023-01-28T17:12:48;101124.07;;;-0.35;95.39
36254;BME280;22291;52.250;21.228;2023-01-28T17:15:15;101128.86;;;-0.34;95.50
36254;BME280;22291;52.250;21.228;2023-01-28T17:17:45;101130.19;;;-0.34;95.50
36254;BME280;22291;52.250;21.228;2023-01-28T17:20:21;101131.73;;;-0.36;95.44
36254;BME280;22291;52.250;21.228;2023-01-28T17:22:54;101133.06;;;-0.36;95.49
36254;BME280;22291;52.250;21.228;2023-01-28T17:25:20;101126.94;;;-0.36;95.40
36254;BME280;22291;52.250;21.228;2023-01-28T17:27:53;101124.80;;;-0.37;95.39
36254;BME280;22291;52.250;21.228;2023-01-28T17:30:21;101130.62;;;-0.38;95.39
36254;BME280;22291;52.250;21.228;2023-01-28T17:32:53;101123.38;;;-0.40;95.36
36254;BME280;22291;52.250;21.228;2023-01-28T17:35:22;101127.16;;;-0.38;95.39
36254;BME280;22291;52.250;21.228;2023-01-28T17:37:53;101132.19;;;-0.39;95.39
36254;BME280;22291;52.250;21.228;2023-01-28T17:40:27;101134.02;;;-0.40;95.44
36254;BME280;22291;52.250;21.228;2023-01-28T17:42:58;101139.64;;;-0.39;95.41
36254;BME280;22291;52.250;21.228;2023-01-28T17:45:25;101139.64;;;-0.39;95.32
36254;BME280;22291;52.250;21.228;2023-01-28T17:47:55;101137.72;;;-0.41;95.29
36254;BME280;22291;52.250;21.228;2023-01-28T17:50:22;101143.84;;;-0.40;95.22
36254;BME280;22291;52.250;21.228;2023-01-28T17:52:56;101143.03;;;-0.41;95.15
36254;BME280;22291;52.250;21.228;2023-01-28T17:55:29;101141.70;;;-0.41;95.06
36254;BME280;22291;52.250;21.228;2023-01-28T17:57:55;101141.70;;;-0.41;95.12
36254;BME280;22291;52.250;21.228;2023-01-28T18:00:27;101141.39;;;-0.42;95.14
36254;BME280;22291;52.250;21.228;2023-01-28T18:02:55;101144.05;;;-0.42;95.07
36254;BME280;22291;52.250;21.228;2023-01-28T18:05:23;101154.16;;;-0.41;94.93
36254;BME280;22291;52.250;21.228;2023-01-28T18:07:49;101146.92;;;-0.43;94.99
36254;BME280;22291;52.250;21.228;2023-01-28T18:10:19;101149.30;;;-0.44;94.86
36254;BME280;22291;52.250;21.228;2023-01-28T18:12:51;101153.05;;;-0.43;94.90
36254;BME280;22291;52.250;21.228;2023-01-28T18:15:20;101148.25;;;-0.43;94.72
36254;BME280;22291;52.250;21.228;2023-01-28T18:17:55;101149.80;;;-0.45;94.26
36254;BME280;22291;52.250;21.228;2023-01-28T18:20:21;101152.66;;;-0.46;93.90
36254;BME280;22291;52.250;21.228;2023-01-28T18:22:48;101152.37;;;-0.47;93.92
36254;BME280;22291;52.250;21.228;2023-01-28T18:25:18;101155.84;;;-0.47;94.04
36254;BME280;22291;52.250;21.228;2023-01-28T18:27:46;101155.84;;;-0.47;94.19
36254;BME280;22291;52.250;21.228;2023-01-28T18:30:19;101165.95;;;-0.46;94.24
36254;BME280;22291;52.250;21.228;2023-01-28T18:32:46;101170.98;;;-0.47;94.18
36254;BME280;22291;52.250;21.228;2023-01-28T18:35:12;101175.78;;;-0.47;94.21
36254;BME280;22291;52.250;21.228;2023-01-28T18:37:41;101173.50;;;-0.43;94.43
36254;BME280;22291;52.250;21.228;2023-01-28T18:40:12;101182.70;;;-0.39;94.17
36254;BME280;22291;52.250;21.228;2023-01-28T18:42:43;101182.70;;;-0.39;94.17
36254;BME280;22291;52.250;21.228;2023-01-28T18:45:12;101176.33;;;-0.38;93.86
36254;BME280;22291;52.250;21.228;2023-01-28T18:47:39;101171.02;;;-0.38;93.77
36254;BME280;22291;52.250;21.228;2023-01-28T18:50:10;101175.22;;;-0.40;93.69
36254;BME280;22291;52.250;21.228;2023-01-28T18:52:37;101174.41;;;-0.40;93.55
36254;BME280;22291;52.250;21.228;2023-01-28T18:55:10;101174.94;;;-0.41;93.32
36254;BME280;22291;52.250;21.228;2023-01-28T18:57:41;101175.14;;;-0.42;93.32
36254;BME280;22291;52.250;21.228;2023-01-28T19:00:17;101160.84;;;-0.48;93.21
36254;BME280;22291;52.250;21.228;2023-01-28T19:02:56;101161.26;;;-0.44;92.89
36254;BME280;22291;52.250;21.228;2023-01-28T19:05:22;101165.36;;;-0.48;92.30
36254;BME280;22291;52.250;21.228;2023-01-28T19:07:58;101160.18;;;-0.52;92.13
36254;BME280;22291;52.250;21.228;2023-01-28T19:10:30;101171.30;;;-0.53;92.12
36254;BME280;22291;52.250;21.228;2023-01-28T19:13:08;101167.56;;;-0.54;92.32
36254;BME280;22291;52.250;21.228;2023-01-28T19:15:38;101160.60;;;-0.55;92.19
36254;BME280;22291;52.250;21.228;2023-01-28T19:18:07;101159.17;;;-0.58;92.06
36254;BME280;22291;52.250;21.228;2023-01-28T19:20:40;101169.00;;;-0.59;92.14
36254;BME280;22291;52.250;21.228;2023-01-28T19:23:12;101163.09;;;-0.61;92.04
36254;BME280;22291;52.250;21.228;2023-01-28T19:25:43;101167.28;;;-0.62;91.82
36254;BME280;22291;52.250;21.228;2023-01-28T19:28:12;101166.97;;;-0.63;91.87
36254;BME280;22291;52.250;21.228;2023-01-28T19:30:39;101166.38;;;-0.65;91.74
36254;BME280;22291;52.250;21.228;2023-01-28T19:33:09;101166.09;;;-0.66;91.59
36254;BME280;22291;52.250;21.228;2023-01-28T19:35:38;101170.88;;;-0.66;91.50
36254;BME280;22291;52.250;21.228;2023-01-28T19:38:08;101167.11;;;-0.67;91.49
36254;BME280;22291;52.250;21.228;2023-01-28T19:40:35;101168.75;;;-0.66;91.41
36254;BME280;22291;52.250;21.228;2023-01-28T19:43:05;101161.27;;;-0.67;91.12
36254;BME280;22291;52.250;21.228;2023-01-28T19:45:43;101163.92;;;-0.67;91.09
36254;BME280;22291;52.250;21.228;2023-01-28T19:48:11;101178.25;;;-0.68;90.84
36254;BME280;22291;52.250;21.228;2023-01-28T19:50:42;101183.78;;;-0.69;90.75
36254;BME280;22291;52.250;21.228;2023-01-28T19:53:11;101181.33;;;-0.71;90.74
36254;BME280;22291;52.250;21.228;2023-01-28T19:55:42;101179.20;;;-0.71;90.53
36254;BME280;22291;52.250;21.228;2023-01-28T19:58:16;101177.87;;;-0.71;90.36
36254;BME280;22291;52.250;21.228;2023-01-28T20:01:01;101176.44;;;-0.74;90.18
36254;BME280;22291;52.250;21.228;2023-01-28T20:03:37;101180.62;;;-0.76;89.91
36254;BME280;22291;52.250;21.228;2023-01-28T20:06:08;101187.80;;;-0.76;89.86
36254;BME280;22291;52.250;21.228;2023-01-28T20:08:39;101191.18;;;-0.78;90.03
36254;BME280;22291;52.250;21.228;2023-01-28T20:11:13;101192.41;;;-0.81;89.63
36254;BME280;22291;52.250;21.228;2023-01-28T20:13:39;101192.13;;;-0.82;89.46
36254;BME280;22291;52.250;21.228;2023-01-28T20:16:11;101190.16;;;-0.84;89.44
36254;BME280;22291;52.250;21.228;2023-01-28T20:18:41;101179.74;;;-0.85;88.74
36254;BME280;22291;52.250;21.228;2023-01-28T20:21:08;101190.38;;;-0.85;88.81
36254;BME280;22291;52.250;21.228;2023-01-28T20:23:35;101193.27;;;-0.87;88.75
36254;BME280;22291;52.250;21.228;2023-01-28T20:26:02;101188.76;;;-0.86;88.68
36254;BME280;22291;52.250;21.228;2023-01-28T20:28:32;101181.00;;;-0.88;88.20
36254;BME280;22291;52.250;21.228;2023-01-28T20:31:03;101187.84;;;-0.89;88.08
36254;BME280;22291;52.250;21.228;2023-01-28T20:33:31;101182.53;;;-0.89;88.04
36254;BME280;22291;52.250;21.228;2023-01-28T20:36:00;101188.37;;;-0.90;88.20
36254;BME280;22291;52.250;21.228;2023-01-28T20:38:35;101188.37;;;-0.90;88.23
36254;BME280;22291;52.250;21.228;2023-01-28T20:41:09;101194.70;;;-0.91;88.14
36254;BME280;22291;52.250;21.228;2023-01-28T20:43:40;101197.34;;;-0.91;88.16
36254;BME280;22291;52.250;21.228;2023-01-28T20:46:15;101192.25;;;-0.92;88.21
36254;BME280;22291;52.250;21.228;2023-01-28T20:48:40;101199.41;;;-0.93;88.37
36254;BME280;22291;52.250;21.228;2023-01-28T20:51:13;101206.86;;;-0.92;88.09
36254;BME280;22291;52.250;21.228;2023-01-28T20:53:41;101206.05;;;-0.93;88.19
36254;BME280;22291;52.250;21.228;2023-01-28T20:56:10;101200.73;;;-0.93;88.22
36254;BME280;22291;52.250;21.228;2023-01-28T20:58:40;101199.41;;;-0.93;88.20
36254;BME280;22291;52.250;21.228;2023-01-28T21:01:07;101203.39;;;-0.93;88.06
36254;BME280;22291;52.250;21.228;2023-01-28T21:03:46;101214.54;;;-0.93;87.93